createdAt,value
2023-05-19T00:00:50.564Z,6.15
2023-05-19T00:01:48.605Z,6.18
2023-05-19T00:02:48.706Z,6.21
2023-05-19T00:03:48.615Z,6.28
2023-05-19T00:04:48.619Z,6.27
2023-05-19T00:05:48.675Z,6.33
2023-05-19T00:06:48.632Z,6.27
2023-05-19T00:07:48.637Z,6.28
2023-05-19T00:08:48.649Z,6.33
2023-05-19T00:09:48.655Z,6.27
2023-05-19T00:10:48.675Z,6.22
2023-05-19T00:11:48.683Z,6.19
2023-05-19T00:12:48.684Z,6.22
2023-05-19T00:13:48.703Z,6.22
2023-05-19T00:14:48.707Z,6.25
2023-05-19T00:15:48.726Z,6.25
2023-05-19T00:16:48.721Z,6.27
2023-05-19T00:17:48.885Z,6.22
2023-05-19T00:18:48.771Z,6.22
2023-05-19T00:19:48.743Z,6.30
2023-05-19T00:20:48.760Z,6.34
2023-05-19T00:21:48.769Z,6.37
2023-05-19T00:22:48.782Z,6.33
2023-05-19T00:23:48.784Z,6.30
2023-05-19T00:24:48.791Z,6.36
2023-05-19T00:25:48.795Z,6.36
2023-05-19T00:26:48.806Z,6.27
2023-05-19T00:27:48.836Z,6.22
2023-05-19T00:28:48.834Z,6.30
2023-05-19T00:29:48.829Z,6.21
2023-05-19T00:30:48.840Z,6.22
2023-05-19T00:31:48.932Z,6.30
2023-05-19T00:32:48.949Z,6.34
2023-05-19T00:33:48.893Z,6.33
2023-05-19T00:34:48.878Z,6.34
2023-05-19T00:35:48.888Z,6.34
2023-05-19T00:36:48.895Z,6.28
2023-05-19T00:37:48.901Z,6.38
2023-05-19T00:38:48.916Z,6.33
2023-05-19T00:39:48.918Z,6.19
2023-05-19T00:40:48.937Z,6.14
2023-05-19T00:41:48.937Z,6.00
2023-05-19T00:42:48.947Z,6.00
2023-05-19T00:43:48.956Z,6.03
2023-05-19T00:44:48.970Z,6.06
2023-05-19T00:45:48.972Z,6.00
2023-05-19T00:46:49.065Z,5.94
2023-05-19T00:47:49.040Z,5.86
2023-05-19T00:48:49.013Z,5.93
2023-05-19T00:49:49.028Z,5.93
2023-05-19T00:50:49.020Z,5.90
2023-05-19T00:51:49.027Z,5.85
2023-05-19T00:52:49.034Z,5.83
2023-05-19T00:53:49.120Z,5.85
2023-05-19T00:54:49.053Z,5.91
2023-05-19T00:55:49.057Z,5.79
2023-05-19T00:56:49.077Z,5.83
2023-05-19T00:57:49.080Z,5.89
2023-05-19T00:58:49.088Z,5.85
2023-05-19T00:59:49.091Z,5.91
2023-05-19T01:00:49.124Z,5.93
2023-05-19T01:01:49.123Z,5.97
2023-05-19T01:02:49.226Z,5.96
2023-05-19T01:03:49.190Z,5.94
2023-05-19T01:04:49.141Z,5.94
2023-05-19T01:05:49.199Z,6.04
2023-05-19T01:06:49.160Z,6.06
2023-05-19T01:07:49.191Z,6.03
2023-05-19T01:08:49.172Z,5.99
2023-05-19T01:09:49.179Z,5.85
2023-05-19T01:10:49.190Z,5.83
2023-05-19T01:11:49.198Z,5.89
2023-05-19T01:12:49.212Z,5.91
2023-05-19T01:13:49.213Z,5.90
2023-05-19T01:14:49.235Z,5.94
2023-05-19T01:15:49.236Z,5.97
2023-05-19T01:16:49.365Z,6.03
2023-05-19T01:17:49.280Z,6.08
2023-05-19T01:18:49.271Z,6.09
2023-05-19T01:19:49.293Z,6.03
2023-05-19T01:20:49.293Z,6.04
2023-05-19T01:21:49.298Z,6.15
2023-05-19T01:22:49.301Z,6.15
2023-05-19T01:23:49.299Z,6.11
2023-05-19T01:24:49.310Z,6.15
2023-05-19T01:25:49.328Z,6.09
2023-05-19T01:26:49.332Z,6.18
2023-05-19T01:27:49.332Z,6.15
2023-05-19T01:28:49.354Z,6.18
2023-05-19T01:29:49.357Z,6.19
2023-05-19T01:30:49.362Z,6.28
2023-05-19T01:31:49.417Z,6.27
2023-05-19T01:32:49.425Z,6.25
2023-05-19T01:33:49.386Z,6.27
2023-05-19T01:34:49.400Z,6.22
2023-05-19T01:35:49.406Z,6.34
2023-05-19T01:36:49.413Z,6.21
2023-05-19T01:37:49.446Z,6.25
2023-05-19T01:38:49.434Z,6.25
2023-05-19T01:39:49.443Z,6.27
2023-05-19T01:40:49.451Z,6.27
2023-05-19T01:41:49.459Z,6.34
2023-05-19T01:42:49.473Z,6.34
2023-05-19T01:43:49.476Z,6.37
2023-05-19T01:44:49.497Z,6.36
2023-05-19T01:45:49.529Z,6.37
2023-05-19T01:46:49.547Z,6.37
2023-05-19T01:47:49.564Z,6.37
2023-05-19T01:48:49.532Z,6.41
2023-05-19T01:49:49.530Z,6.34
2023-05-19T01:50:49.552Z,6.38
2023-05-19T01:51:49.547Z,6.44
2023-05-19T01:52:49.571Z,6.41
2023-05-19T01:53:49.656Z,6.36
2023-05-19T01:54:49.583Z,6.38
2023-05-19T01:55:49.652Z,6.38
2023-05-19T01:56:49.599Z,6.40
2023-05-19T01:57:49.602Z,6.33
2023-05-19T01:58:49.613Z,6.34
2023-05-19T01:59:49.634Z,6.25
2023-05-19T02:00:49.633Z,6.31
2023-05-19T02:01:49.648Z,6.21
2023-05-19T02:02:49.687Z,6.21
2023-05-19T02:03:49.657Z,6.25
2023-05-19T02:04:49.686Z,6.22
2023-05-19T02:05:49.673Z,6.33
2023-05-19T02:06:49.708Z,6.27
2023-05-19T02:07:49.696Z,6.31
2023-05-19T02:08:49.702Z,6.27
2023-05-19T02:09:49.726Z,6.21
2023-05-19T02:10:49.731Z,6.30
2023-05-19T02:11:49.730Z,6.25
2023-05-19T02:12:49.738Z,6.22
2023-05-19T02:13:49.745Z,6.27
2023-05-19T02:14:49.777Z,6.30
2023-05-19T02:15:49.776Z,6.37
2023-05-19T02:16:49.783Z,6.36
2023-05-19T02:17:49.792Z,6.33
2023-05-19T02:18:49.826Z,6.31
2023-05-19T02:19:49.800Z,6.37
2023-05-19T02:20:49.809Z,6.34
2023-05-19T02:21:49.808Z,6.36
2023-05-19T02:22:49.831Z,6.37
2023-05-19T02:23:49.828Z,6.43
2023-05-19T02:24:49.836Z,6.37
2023-05-19T02:25:49.861Z,6.40
2023-05-19T02:26:49.855Z,6.37
2023-05-19T02:27:49.864Z,6.38
2023-05-19T02:28:49.872Z,6.36
2023-05-19T02:29:49.881Z,6.34
2023-05-19T02:30:49.900Z,6.37
2023-05-19T02:31:49.969Z,6.37
2023-05-19T02:32:49.931Z,6.37
2023-05-19T02:33:49.917Z,6.37
2023-05-19T02:34:49.927Z,6.38
2023-05-19T02:35:49.931Z,6.37
2023-05-19T02:36:50.014Z,6.37
2023-05-19T02:37:49.969Z,6.38
2023-05-19T02:38:49.961Z,6.37
2023-05-19T02:39:49.964Z,6.34
2023-05-19T02:40:49.978Z,6.40
2023-05-19T02:41:50.063Z,6.43
2023-05-19T02:42:50.020Z,6.40
2023-05-19T02:43:49.999Z,6.33
2023-05-19T02:44:50.053Z,6.33
2023-05-19T02:45:50.019Z,6.36
2023-05-19T02:46:50.061Z,6.37
2023-05-19T02:47:50.083Z,6.37
2023-05-19T02:48:50.045Z,6.40
2023-05-19T02:49:50.064Z,6.41
2023-05-19T02:50:50.067Z,6.38
2023-05-19T02:51:50.080Z,6.44
2023-05-19T02:52:50.085Z,6.46
2023-05-19T02:53:50.086Z,6.38
2023-05-19T02:54:50.101Z,6.40
2023-05-19T02:55:50.111Z,6.43
2023-05-19T02:56:50.115Z,6.48
2023-05-19T02:57:50.235Z,6.44
2023-05-19T02:58:50.132Z,6.46
2023-05-19T02:59:50.150Z,6.43
2023-05-19T03:00:50.149Z,6.33
2023-05-19T03:01:50.245Z,6.34
2023-05-19T03:02:50.244Z,6.22
2023-05-19T03:03:50.322Z,6.30
2023-05-19T03:04:50.186Z,6.31
2023-05-19T03:05:50.202Z,6.25
2023-05-19T03:06:50.216Z,6.31
2023-05-19T03:07:50.214Z,6.30
2023-05-19T03:08:50.233Z,6.25
2023-05-19T03:09:50.243Z,6.30
2023-05-19T03:10:50.237Z,6.34
2023-05-19T03:11:50.254Z,6.36
2023-05-19T03:12:50.253Z,6.38
2023-05-19T03:13:50.306Z,6.36
2023-05-19T03:14:50.275Z,6.40
2023-05-19T03:15:50.313Z,6.33
2023-05-19T03:16:50.419Z,6.36
2023-05-19T03:17:50.454Z,6.38
2023-05-19T03:18:50.350Z,6.33
2023-05-19T03:19:50.325Z,6.36
2023-05-19T03:20:50.340Z,6.31
2023-05-19T03:21:50.348Z,6.37
2023-05-19T03:22:50.361Z,6.33
2023-05-19T03:23:50.356Z,6.36
2023-05-19T03:24:50.365Z,6.34
2023-05-19T03:25:50.378Z,6.37
2023-05-19T03:26:50.421Z,6.36
2023-05-19T03:27:50.407Z,6.40
2023-05-19T03:28:50.407Z,6.33
2023-05-19T03:29:50.500Z,6.34
2023-05-19T03:30:50.423Z,6.36
2023-05-19T03:31:50.430Z,6.34
2023-05-19T03:32:50.591Z,6.34
2023-05-19T03:33:50.456Z,6.33
2023-05-19T03:34:50.473Z,6.34
2023-05-19T03:35:50.471Z,6.33
2023-05-19T03:36:50.477Z,6.37
2023-05-19T03:37:50.487Z,6.31
2023-05-19T03:38:50.493Z,6.41
2023-05-19T03:39:50.510Z,6.31
2023-05-19T03:40:50.514Z,6.40
2023-05-19T03:41:50.521Z,6.33
2023-05-19T03:42:50.542Z,6.38
2023-05-19T03:43:50.550Z,6.34
2023-05-19T03:44:50.542Z,6.30
2023-05-19T03:45:50.643Z,6.37
2023-05-19T03:46:50.568Z,6.36
2023-05-19T03:47:50.642Z,6.33
2023-05-19T03:48:50.581Z,6.33
2023-05-19T03:49:50.590Z,6.34
2023-05-19T03:50:50.595Z,6.37
2023-05-19T03:51:50.608Z,6.36
2023-05-19T03:52:50.631Z,6.36
2023-05-19T03:53:50.640Z,6.33
2023-05-19T03:54:50.632Z,6.28
2023-05-19T03:55:50.644Z,6.31
2023-05-19T03:56:50.648Z,6.41
2023-05-19T03:57:50.660Z,6.36
2023-05-19T03:58:50.671Z,6.33
2023-05-19T03:59:50.679Z,6.30
2023-05-19T04:00:50.688Z,6.28
2023-05-19T04:01:50.855Z,6.25
2023-05-19T04:02:50.820Z,6.31
2023-05-19T04:03:50.723Z,6.22
2023-05-19T04:04:51.031Z,6.30
2023-05-19T04:05:50.737Z,6.27
2023-05-19T04:06:50.734Z,6.33
2023-05-19T04:07:50.751Z,6.34
2023-05-19T04:08:50.766Z,6.34
2023-05-19T04:09:50.772Z,6.31
2023-05-19T04:10:50.767Z,6.34
2023-05-19T04:11:50.802Z,6.33
2023-05-19T04:12:50.793Z,6.34
2023-05-19T04:13:50.813Z,6.30
2023-05-19T04:14:50.808Z,6.37
2023-05-19T04:15:50.855Z,6.31
2023-05-19T04:16:50.845Z,6.37
2023-05-19T04:17:50.906Z,6.37
2023-05-19T04:18:50.948Z,6.36
2023-05-19T04:19:50.858Z,6.33
2023-05-19T04:20:50.865Z,6.33
2023-05-19T04:21:50.883Z,6.36
2023-05-19T04:22:50.887Z,6.36
2023-05-19T04:23:50.890Z,6.31
2023-05-19T04:24:50.894Z,6.33
2023-05-19T04:25:50.951Z,6.40
2023-05-19T04:26:50.927Z,6.40
2023-05-19T04:27:50.942Z,6.37
2023-05-19T04:28:50.929Z,6.33
2023-05-19T04:29:50.955Z,6.36
2023-05-19T04:30:51.032Z,6.36
2023-05-19T04:31:50.991Z,6.34
2023-05-19T04:32:51.106Z,6.36
2023-05-19T04:33:51.007Z,6.36
2023-05-19T04:34:51.018Z,6.41
2023-05-19T04:35:51.013Z,6.36
2023-05-19T04:36:53.244Z,6.40
2023-05-19T04:37:51.018Z,6.41
2023-05-19T04:38:51.054Z,6.27
2023-05-19T04:39:51.024Z,6.27
2023-05-19T04:40:51.034Z,6.28
2023-05-19T04:41:51.052Z,6.34
2023-05-19T04:42:51.052Z,6.28
2023-05-19T04:43:51.069Z,6.25
2023-05-19T04:44:51.071Z,6.21
2023-05-19T04:45:51.083Z,6.22
2023-05-19T04:46:51.117Z,6.28
2023-05-19T04:47:51.137Z,6.25
2023-05-19T04:48:51.105Z,6.25
2023-05-19T04:49:51.274Z,6.22
2023-05-19T04:50:51.121Z,6.21
2023-05-19T04:51:53.289Z,6.22
2023-05-19T04:52:51.144Z,6.30
2023-05-19T04:53:51.154Z,6.27
2023-05-19T04:54:51.156Z,6.30
2023-05-19T04:55:51.170Z,6.34
2023-05-19T04:56:51.176Z,6.34
2023-05-19T04:57:51.202Z,6.36
2023-05-19T04:58:51.193Z,6.38
2023-05-19T04:59:51.202Z,6.41
2023-05-19T05:00:51.206Z,6.44
2023-05-19T05:01:51.310Z,6.51
2023-05-19T05:02:51.338Z,6.49
2023-05-19T05:03:51.275Z,6.55
2023-05-19T05:04:51.254Z,6.61
2023-05-19T05:05:51.278Z,6.61
2023-05-19T05:06:51.258Z,6.56
2023-05-19T05:07:51.271Z,6.71
2023-05-19T05:08:51.296Z,6.71
2023-05-19T05:09:51.287Z,6.79
2023-05-19T05:10:51.293Z,6.76
2023-05-19T05:11:51.308Z,6.74
2023-05-19T05:12:51.317Z,6.76
2023-05-19T05:13:51.328Z,6.79
2023-05-19T05:14:51.324Z,6.76
2023-05-19T05:15:51.378Z,6.85
2023-05-19T05:16:51.414Z,6.77
2023-05-19T05:17:51.393Z,6.69
2023-05-19T05:18:51.380Z,6.62
2023-05-19T05:19:51.395Z,6.52
2023-05-19T05:20:51.379Z,6.33
2023-05-19T05:21:52.210Z,6.36
2023-05-19T05:22:51.399Z,6.43
2023-05-19T05:23:51.412Z,6.49
2023-05-19T05:24:51.421Z,6.51
2023-05-19T05:25:51.433Z,6.51
2023-05-19T05:26:51.433Z,6.55
2023-05-19T05:27:51.445Z,6.55
2023-05-19T05:28:51.452Z,6.55
2023-05-19T05:29:51.689Z,6.55
2023-05-19T05:30:51.471Z,6.59
2023-05-19T05:31:51.484Z,6.66
2023-05-19T05:32:51.577Z,6.70
2023-05-19T05:33:51.500Z,6.56
2023-05-19T05:34:51.501Z,6.55
2023-05-19T05:35:51.539Z,6.36
2023-05-19T05:36:51.529Z,6.27
2023-05-19T05:37:51.553Z,6.18
2023-05-19T05:38:51.535Z,6.06
2023-05-19T05:39:51.553Z,6.04
2023-05-19T05:40:51.556Z,6.04
2023-05-19T05:41:51.569Z,6.03
2023-05-19T05:42:51.575Z,6.15
2023-05-19T05:43:51.592Z,6.12
2023-05-19T05:44:51.591Z,6.17
2023-05-19T05:45:51.652Z,6.14
2023-05-19T05:46:51.614Z,6.21
2023-05-19T05:47:51.647Z,6.25
2023-05-19T05:48:51.630Z,6.28
2023-05-19T05:49:53.477Z,6.31
2023-05-19T05:50:51.666Z,6.36
2023-05-19T05:52:04.835Z,6.38
2023-05-19T05:52:51.661Z,6.56
2023-05-19T05:53:51.724Z,6.48
2023-05-19T05:54:51.678Z,6.66
2023-05-19T05:55:51.707Z,6.64
2023-05-19T05:56:51.697Z,6.76
2023-05-19T05:57:51.715Z,6.79
2023-05-19T05:58:51.719Z,6.79
2023-05-19T05:59:51.730Z,6.84
2023-05-19T06:00:51.734Z,6.84
2023-05-19T06:01:51.776Z,6.80
2023-05-19T06:02:51.928Z,6.91
2023-05-19T06:03:51.797Z,6.91
2023-05-19T06:04:51.767Z,6.80
2023-05-19T06:05:51.837Z,6.84
2023-05-19T06:06:51.787Z,6.77
2023-05-19T06:07:51.796Z,6.81
2023-05-19T06:08:51.808Z,6.76
2023-05-19T06:09:51.855Z,6.79
2023-05-19T06:10:51.821Z,6.71
2023-05-19T06:11:51.839Z,6.81
2023-05-19T06:12:51.856Z,6.85
2023-05-19T06:13:51.862Z,6.92
2023-05-19T06:14:51.861Z,6.97
2023-05-19T06:15:51.888Z,7.03
2023-05-19T06:16:51.873Z,6.94
2023-05-19T06:17:51.969Z,6.98
2023-05-19T06:18:51.999Z,6.88
2023-05-19T06:19:51.906Z,6.70
2023-05-19T06:20:51.911Z,6.70
2023-05-19T06:21:51.921Z,6.66
2023-05-19T06:22:51.943Z,6.64
2023-05-19T06:23:51.940Z,6.64
2023-05-19T06:24:51.944Z,6.62
2023-05-19T06:25:51.985Z,6.66
2023-05-19T06:26:51.963Z,6.67
2023-05-19T06:27:51.975Z,6.66
2023-05-19T06:28:51.981Z,6.71
2023-05-19T06:29:51.997Z,6.70
2023-05-19T06:30:51.997Z,6.61
2023-05-19T06:31:52.043Z,6.64
2023-05-19T06:32:52.054Z,6.77
2023-05-19T06:33:52.028Z,6.80
2023-05-19T06:34:52.034Z,6.85
2023-05-19T06:35:52.049Z,6.91
2023-05-19T06:36:52.051Z,6.77
2023-05-19T06:37:52.066Z,6.67
2023-05-19T06:38:52.072Z,6.71
2023-05-19T06:39:52.095Z,6.59
2023-05-19T06:40:52.084Z,6.66
2023-05-19T06:41:52.209Z,6.77
2023-05-19T06:42:52.123Z,6.73
2023-05-19T06:43:52.116Z,6.81
2023-05-19T06:44:52.125Z,6.70
2023-05-19T06:45:52.134Z,6.58
2023-05-19T06:46:52.176Z,6.61
2023-05-19T06:47:52.199Z,6.70
2023-05-19T06:48:52.164Z,6.70
2023-05-19T06:49:52.172Z,6.74
2023-05-19T06:50:52.174Z,6.77
2023-05-19T06:51:52.220Z,6.77
2023-05-19T06:52:52.202Z,6.62
2023-05-19T06:53:52.211Z,6.62
2023-05-19T06:54:52.210Z,6.79
2023-05-19T06:55:58.716Z,6.84
2023-05-19T06:56:52.236Z,6.89
2023-05-19T06:57:52.264Z,6.98
2023-05-19T06:58:52.247Z,7.05
2023-05-19T06:59:52.258Z,7.16
2023-05-19T07:00:52.261Z,7.12
2023-05-19T07:01:52.305Z,7.27
2023-05-19T07:02:52.440Z,7.31
2023-05-19T07:03:52.551Z,7.23
2023-05-19T07:04:52.297Z,7.23
2023-05-19T07:05:52.325Z,7.25
2023-05-19T07:06:52.336Z,7.10
2023-05-19T07:07:52.340Z,7.27
2023-05-19T07:08:52.445Z,7.27
2023-05-19T07:09:52.381Z,7.35
2023-05-19T07:10:52.376Z,7.40
2023-05-19T07:11:52.389Z,7.45
2023-05-19T07:12:52.394Z,7.45
2023-05-19T07:13:52.524Z,7.55
2023-05-19T07:14:52.439Z,7.53
2023-05-19T07:15:52.473Z,7.49
2023-05-19T07:16:52.451Z,7.42
2023-05-19T07:17:52.514Z,7.52
2023-05-19T07:18:52.492Z,7.45
2023-05-19T07:19:52.449Z,7.48
2023-05-19T07:20:52.441Z,7.50
2023-05-19T07:21:52.458Z,7.50
2023-05-19T07:22:52.458Z,7.40
2023-05-19T07:23:52.470Z,7.34
2023-05-19T07:24:52.510Z,7.46
2023-05-19T07:25:52.517Z,7.55
2023-05-19T07:26:52.501Z,7.61
2023-05-19T07:27:52.507Z,7.40
2023-05-19T07:28:52.519Z,7.40
2023-05-19T07:29:52.544Z,7.27
2023-05-19T07:30:52.531Z,7.45
2023-05-19T07:31:52.598Z,7.46
2023-05-19T07:32:52.645Z,7.53
2023-05-19T07:33:54.636Z,7.50
2023-05-19T07:34:52.567Z,7.60
2023-05-19T07:35:52.577Z,7.60
2023-05-19T07:36:52.586Z,7.72
2023-05-19T07:37:52.697Z,7.57
2023-05-19T07:38:52.670Z,7.46
2023-05-19T07:39:52.613Z,7.42
2023-05-19T07:40:52.625Z,7.46
2023-05-19T07:41:52.662Z,7.57
2023-05-19T07:42:52.655Z,7.77
2023-05-19T07:43:52.649Z,7.77
2023-05-19T07:44:52.660Z,7.86
2023-05-19T07:45:52.815Z,7.89
2023-05-19T07:46:52.689Z,8.00
2023-05-19T07:47:52.751Z,8.11
2023-05-19T07:48:52.730Z,8.05
2023-05-19T07:49:52.699Z,8.10
2023-05-19T07:50:52.742Z,8.29
2023-05-19T07:51:52.720Z,8.58
2023-05-19T07:52:52.731Z,8.73
2023-05-19T07:53:52.742Z,8.66
2023-05-19T07:54:52.749Z,8.74
2023-05-19T07:55:52.769Z,8.56
2023-05-19T07:56:52.791Z,8.40
2023-05-19T07:57:52.779Z,8.33
2023-05-19T07:58:52.786Z,8.38
2023-05-19T07:59:52.796Z,8.59
2023-05-19T08:00:52.802Z,8.99
2023-05-19T08:01:52.832Z,9.17
2023-05-19T08:02:52.874Z,9.26
2023-05-19T08:03:52.991Z,9.11
2023-05-19T08:04:53.050Z,9.02
2023-05-19T08:05:52.937Z,8.91
2023-05-19T08:06:52.858Z,8.94
2023-05-19T08:07:52.885Z,9.05
2023-05-19T08:08:52.884Z,9.05
2023-05-19T08:09:52.890Z,9.15
2023-05-19T08:10:52.911Z,9.23
2023-05-19T08:11:52.912Z,9.21
2023-05-19T08:12:52.917Z,8.96
2023-05-19T08:13:52.932Z,9.23
2023-05-19T08:14:52.943Z,8.99
2023-05-19T08:15:53.012Z,8.95
2023-05-19T08:16:52.962Z,9.31
2023-05-19T08:17:53.031Z,9.35
2023-05-19T08:18:53.013Z,9.60
2023-05-19T08:19:52.983Z,9.58
2023-05-19T08:20:53.008Z,9.36
2023-05-19T08:21:53.013Z,9.54
2023-05-19T08:22:53.018Z,9.18
2023-05-19T08:23:53.028Z,9.18
2023-05-19T08:24:53.045Z,9.14
2023-05-19T08:25:53.056Z,9.29
2023-05-19T08:26:53.066Z,9.33
2023-05-19T08:27:53.081Z,9.43
2023-05-19T08:28:53.082Z,9.33
2023-05-19T08:29:53.147Z,9.58
2023-05-19T08:30:53.096Z,10.23
2023-05-19T08:31:53.307Z,10.27
2023-05-19T08:32:53.130Z,10.17
2023-05-19T08:33:53.167Z,10.23
2023-05-19T08:34:53.137Z,9.61
2023-05-19T08:35:53.164Z,9.61
2023-05-19T08:36:53.160Z,9.71
2023-05-19T08:37:53.166Z,9.46
2023-05-19T08:38:53.187Z,9.74
2023-05-19T08:39:53.188Z,9.65
2023-05-19T08:40:53.212Z,9.76
2023-05-19T08:41:53.213Z,10.02
2023-05-19T08:42:53.218Z,9.84
2023-05-19T08:43:53.222Z,10.05
2023-05-19T08:44:53.243Z,10.11
2023-05-19T08:45:53.243Z,10.12
2023-05-19T08:46:53.321Z,9.96
2023-05-19T08:47:53.290Z,10.25
2023-05-19T08:48:53.276Z,10.14
2023-05-19T08:49:53.323Z,10.29
2023-05-19T08:50:53.309Z,10.38
2023-05-19T08:51:53.301Z,10.47
2023-05-19T08:52:53.607Z,10.17
2023-05-19T08:53:53.324Z,10.56
2023-05-19T08:54:53.357Z,10.91
2023-05-19T08:55:53.364Z,10.73
2023-05-19T08:56:53.354Z,11.09
2023-05-19T08:57:53.362Z,11.17
2023-05-19T08:58:53.384Z,10.84
2023-05-19T08:59:53.389Z,10.26
2023-05-19T09:00:53.457Z,10.73
2023-05-19T09:01:53.404Z,10.71
2023-05-19T09:03:00.240Z,10.66
2023-05-19T09:03:53.484Z,10.38
2023-05-19T09:04:53.502Z,10.32
2023-05-19T09:05:53.591Z,10.40
2023-05-19T09:06:53.462Z,10.29
2023-05-19T09:07:53.475Z,10.23
2023-05-19T09:08:53.481Z,10.34
2023-05-19T09:09:53.489Z,9.99
2023-05-19T09:10:53.514Z,9.96
2023-05-19T09:11:53.514Z,10.12
2023-05-19T09:12:53.524Z,9.86
2023-05-19T09:13:53.531Z,10.12
2023-05-19T09:14:53.549Z,10.30
2023-05-19T09:15:53.557Z,10.27
2023-05-19T09:16:53.602Z,10.22
2023-05-19T09:17:53.589Z,10.30
2023-05-19T09:18:53.587Z,10.55
2023-05-19T09:19:53.597Z,10.67
2023-05-19T09:20:53.608Z,10.61
2023-05-19T09:21:53.643Z,10.55
2023-05-19T09:22:53.629Z,10.36
2023-05-19T09:23:53.639Z,10.33
2023-05-19T09:24:53.652Z,10.66
2023-05-19T09:25:53.696Z,11.07
2023-05-19T09:26:53.674Z,11.14
2023-05-19T09:27:53.690Z,11.10
2023-05-19T09:28:53.694Z,10.79
2023-05-19T09:29:53.700Z,10.67
2023-05-19T09:30:53.717Z,10.52
2023-05-19T09:31:53.761Z,10.34
2023-05-19T09:32:53.763Z,9.99
2023-05-19T09:33:53.781Z,9.97
2023-05-19T09:34:53.762Z,9.66
2023-05-19T09:35:53.769Z,9.69
2023-05-19T09:36:54.039Z,9.74
2023-05-19T09:37:53.831Z,9.89
2023-05-19T09:38:53.803Z,10.02
2023-05-19T09:39:53.814Z,10.25
2023-05-19T09:40:53.842Z,10.25
2023-05-19T09:41:53.837Z,10.71
2023-05-19T09:42:53.844Z,10.34
2023-05-19T09:43:53.866Z,10.63
2023-05-19T09:44:53.872Z,10.70
2023-05-19T09:45:53.884Z,10.67
2023-05-19T09:46:53.920Z,11.02
2023-05-19T09:47:53.974Z,10.61
2023-05-19T09:48:53.927Z,10.60
2023-05-19T09:49:53.927Z,10.48
2023-05-19T09:50:53.937Z,10.45
2023-05-19T09:51:53.960Z,10.42
2023-05-19T09:52:53.960Z,10.51
2023-05-19T09:53:53.989Z,10.40
2023-05-19T09:54:53.999Z,10.74
2023-05-19T09:55:54.012Z,11.06
2023-05-19T09:56:54.001Z,11.37
2023-05-19T09:57:54.028Z,11.51
2023-05-19T09:58:54.025Z,11.82
2023-05-19T09:59:54.036Z,12.13
2023-05-19T10:00:54.051Z,12.19
2023-05-19T10:01:54.146Z,12.10
2023-05-19T10:02:54.130Z,11.76
2023-05-19T10:03:54.077Z,11.61
2023-05-19T10:04:54.154Z,11.33
2023-05-19T10:05:54.101Z,11.75
2023-05-19T10:06:54.114Z,11.96
2023-05-19T10:07:54.126Z,12.16
2023-05-19T10:08:54.149Z,12.77
2023-05-19T10:09:54.347Z,12.86
2023-05-19T10:10:54.162Z,12.57
2023-05-19T10:11:54.174Z,12.50
2023-05-19T10:12:54.188Z,12.79
2023-05-19T10:13:54.196Z,12.89
2023-05-19T10:14:54.215Z,12.86
2023-05-19T10:15:58.614Z,13.22
2023-05-19T10:16:54.297Z,12.71
2023-05-19T10:17:54.314Z,12.24
2023-05-19T10:18:54.319Z,12.21
2023-05-19T10:19:54.270Z,12.41
2023-05-19T10:20:54.310Z,12.67
2023-05-19T10:21:54.316Z,12.75
2023-05-19T10:22:54.308Z,12.75
2023-05-19T10:23:54.316Z,13.12
2023-05-19T10:24:54.336Z,13.04
2023-05-19T10:25:54.364Z,12.82
2023-05-19T10:26:54.356Z,12.71
2023-05-19T10:27:54.371Z,12.75
2023-05-19T10:28:54.380Z,12.68
2023-05-19T10:29:54.401Z,13.08
2023-05-19T10:30:54.403Z,13.19
2023-05-19T10:31:54.459Z,12.87
2023-05-19T10:32:54.462Z,12.85
2023-05-19T10:33:54.464Z,13.10
2023-05-19T10:34:54.469Z,13.32
2023-05-19T10:35:54.467Z,13.38
2023-05-19T10:36:54.490Z,13.48
2023-05-19T10:37:54.496Z,13.59
2023-05-19T10:38:54.508Z,13.26
2023-05-19T10:39:54.519Z,13.28
2023-05-19T10:40:54.537Z,13.41
2023-05-19T10:41:54.561Z,13.66
2023-05-19T10:42:54.560Z,13.11
2023-05-19T10:43:54.579Z,12.47
2023-05-19T10:44:54.585Z,12.24
2023-05-19T10:45:54.626Z,12.13
2023-05-19T10:46:56.802Z,11.90
2023-05-19T10:47:54.648Z,11.91
2023-05-19T10:48:54.641Z,11.83
2023-05-19T10:49:54.649Z,11.51
2023-05-19T10:50:54.665Z,11.52
2023-05-19T10:51:54.680Z,11.60
2023-05-19T10:52:54.692Z,11.39
2023-05-19T10:53:54.701Z,11.07
2023-05-19T10:54:54.907Z,11.39
2023-05-19T10:55:54.728Z,11.29
2023-05-19T10:56:54.739Z,11.22
2023-05-19T10:57:54.799Z,11.02
2023-05-19T10:58:54.772Z,10.99
2023-05-19T10:59:54.781Z,11.04
2023-05-19T11:00:54.794Z,11.00
2023-05-19T11:01:54.836Z,11.19
2023-05-19T11:02:54.860Z,11.27
2023-05-19T11:03:54.962Z,11.60
2023-05-19T11:04:54.842Z,11.86
2023-05-19T11:05:54.851Z,12.02
2023-05-19T11:06:54.867Z,11.94
2023-05-19T11:07:54.877Z,12.29
2023-05-19T11:08:54.892Z,12.50
2023-05-19T11:09:54.907Z,12.85
2023-05-19T11:10:54.915Z,12.59
2023-05-19T11:11:54.940Z,12.67
2023-05-19T11:12:54.943Z,13.01
2023-05-19T11:13:55.213Z,12.38
2023-05-19T11:14:54.968Z,12.53
2023-05-19T11:15:54.982Z,12.68
2023-05-19T11:16:55.082Z,12.93
2023-05-19T11:17:55.027Z,13.12
2023-05-19T11:18:55.093Z,12.87
2023-05-19T11:19:55.031Z,12.82
2023-05-19T11:20:55.092Z,12.62
2023-05-19T11:21:55.106Z,12.71
2023-05-19T11:22:55.100Z,12.56
2023-05-19T11:23:55.219Z,12.54
2023-05-19T11:24:55.101Z,12.45
2023-05-19T11:25:55.131Z,12.65
2023-05-19T11:26:55.117Z,12.20
2023-05-19T11:27:55.130Z,11.40
2023-05-19T11:28:55.140Z,11.43
2023-05-19T11:29:55.173Z,11.54
2023-05-19T11:30:55.162Z,11.70
2023-05-19T11:31:55.209Z,11.42
2023-05-19T11:32:55.218Z,11.35
2023-05-19T11:33:55.207Z,11.27
2023-05-19T11:34:55.222Z,11.42
2023-05-19T11:35:55.230Z,11.58
2023-05-19T11:36:55.251Z,11.86
2023-05-19T11:37:55.256Z,11.90
2023-05-19T11:38:55.289Z,11.82
2023-05-19T11:39:55.280Z,11.73
2023-05-19T11:40:55.298Z,11.85
2023-05-19T11:41:55.307Z,11.73
2023-05-19T11:42:55.315Z,11.62
2023-05-19T11:43:55.351Z,11.61
2023-05-19T11:44:55.349Z,11.69
2023-05-19T11:45:55.520Z,11.78
2023-05-19T11:46:55.531Z,11.83
2023-05-19T11:48:01.939Z,11.73
2023-05-19T11:48:55.411Z,11.72
2023-05-19T11:49:55.417Z,11.95
2023-05-19T11:50:55.413Z,12.17
2023-05-19T11:51:55.429Z,12.39
2023-05-19T11:52:55.470Z,12.57
2023-05-19T11:53:55.457Z,12.49
2023-05-19T11:54:55.462Z,12.64
2023-05-19T11:55:55.480Z,12.83
2023-05-19T11:56:55.486Z,13.11
2023-05-19T11:58:03.007Z,13.08
2023-05-19T11:58:55.525Z,12.62
2023-05-19T11:59:55.531Z,12.37
2023-05-19T12:00:55.542Z,12.37
2023-05-19T12:01:55.582Z,12.29
2023-05-19T12:02:55.654Z,12.10
2023-05-19T12:03:55.786Z,12.16
2023-05-19T12:04:55.613Z,12.09
2023-05-19T12:05:55.610Z,12.01
2023-05-19T12:06:55.611Z,11.52
2023-05-19T12:07:55.631Z,11.37
2023-05-19T12:08:55.641Z,11.44
2023-05-19T12:09:55.650Z,11.52
2023-05-19T12:10:55.668Z,11.65
2023-05-19T12:11:55.679Z,11.85
2023-05-19T12:12:55.693Z,11.90
2023-05-19T12:13:55.704Z,11.91
2023-05-19T12:14:55.715Z,12.02
2023-05-19T12:15:55.766Z,12.01
2023-05-19T12:16:55.806Z,12.01
2023-05-19T12:17:55.851Z,12.05
2023-05-19T12:18:55.782Z,12.10
2023-05-19T12:19:55.778Z,11.98
2023-05-19T12:20:55.789Z,11.99
2023-05-19T12:21:55.805Z,11.91
2023-05-19T12:22:55.861Z,11.27
2023-05-19T12:23:55.841Z,10.88
2023-05-19T12:24:55.839Z,10.91
2023-05-19T12:25:55.857Z,10.74
2023-05-19T12:26:55.873Z,10.92
2023-05-19T12:27:56.228Z,10.76
2023-05-19T12:28:55.914Z,10.89
2023-05-19T12:29:55.905Z,11.04
2023-05-19T12:30:55.919Z,11.21
2023-05-19T12:31:55.958Z,11.35
2023-05-19T12:32:55.978Z,11.33
2023-05-19T12:33:55.996Z,11.22
2023-05-19T12:34:55.978Z,11.11
2023-05-19T12:35:56.004Z,11.21
2023-05-19T12:36:55.991Z,11.51
2023-05-19T12:37:56.008Z,11.39
2023-05-19T12:38:56.011Z,11.55
2023-05-19T12:39:56.029Z,11.62
2023-05-19T12:40:56.039Z,11.17
2023-05-19T12:41:56.054Z,10.84
2023-05-19T12:42:56.070Z,11.04
2023-05-19T12:43:56.075Z,11.10
2023-05-19T12:44:56.100Z,10.94
2023-05-19T12:45:56.151Z,10.74
2023-05-19T12:46:56.113Z,10.85
2023-05-19T12:47:56.404Z,10.99
2023-05-19T12:48:56.139Z,11.10
2023-05-19T12:49:56.181Z,11.21
2023-05-19T12:50:56.181Z,11.36
2023-05-19T12:51:56.177Z,11.54
2023-05-19T12:52:56.184Z,11.62
2023-05-19T12:53:56.198Z,11.67
2023-05-19T12:54:56.268Z,11.76
2023-05-19T12:55:56.231Z,11.44
2023-05-19T12:56:56.233Z,11.11
2023-05-19T12:57:56.285Z,11.17
2023-05-19T12:58:56.268Z,11.37
2023-05-19T12:59:56.287Z,11.37
2023-05-19T13:00:56.349Z,11.51
2023-05-19T13:01:56.368Z,11.70
2023-05-19T13:02:56.423Z,11.78
2023-05-19T13:03:56.586Z,11.83
2023-05-19T13:04:56.331Z,11.80
2023-05-19T13:05:56.400Z,11.69
2023-05-19T13:06:56.386Z,11.80
2023-05-19T13:07:56.371Z,11.67
2023-05-19T13:08:56.378Z,11.61
2023-05-19T13:09:56.397Z,11.52